x

Tanner Bank - 121nm West Of San Diego, Ca (46047) Wave Buoy

8:50am - Tue 28th Feb 2017 All times are PST. -8 hours from GMT.

  • Sig Wave height 8.9ft
  • Swell Direction
  • Peak Period 15s
  • Average Period 7s
  • Wind
    25mph, 29mph gusts
  • Sea Temp 59°f
  • Air Temp 55°f
  • Sea Pressure 1019.4mb
  • Tanner Bank - 121nm West Of San Diego, Ca
  • Tanner Bank - 121nm West Of San Diego, Ca

More Historic Weather Station data

Upgrade to MSW Pro to gain access to the past 30 days of data for over 8000 Wavebouys and Weather Stations around the globe.

Join Pro

Comparision Forecast

View Surf forecast
   
Tue 02/28 8:50am 9ft 15s 7s 25 29 mph 1019.4mb 59f 55f
7:50am 8ft 8s 6s 25 31 mph 1018.4mb 59f 55f
6:50am 8.5ft 8s 6s 25 29 mph 1017.4mb 59f 55f
5:50am 9ft 8s 6s 25 29 mph 1016.5mb 59f 55f
4:50am 8.5ft 8s 6s 25 31 mph 1015.7mb 59f 55f
3:50am 8.5ft 7s 6s 25 29 mph 1015.1mb 59f 55f
2:50am 8ft 16s 6s 22 29 mph 1014.8mb 59f 55f
1:50am 8ft 7s 6s 25 29 mph 1014.8mb 59f 55f
12:50am 8ft 7s 6s 27 31 mph 1014.3mb 59f 55f
Mon 02/27 11:50pm 7.5ft 15s 6s 27 31 mph 1013.8mb 59f 55f
10:50pm 7ft 16s 6s 25 29 mph 1013.4mb 59f 55f
9:50pm 7ft 16s 6s 25 29 mph 1013.1mb 59f 55f
8:50pm 6.5ft 15s 6s 22 27 mph 1012.4mb 59f 55f
7:50pm 6.5ft 16s 6s 20 25 mph 1012.1mb 59f 55f
6:50pm 7ft 16s 7s 18 25 mph 1012.2mb 59f 55f
5:50pm 5.5ft 16s 6s 20 25 mph 1011.6mb 59f 55f
4:50pm 6ft 16s 7s 16 18 mph 1011mb 59f 55f
3:50pm 6ft 16s 7s 11 13 mph 1011.4mb 59f 52f
2:50pm 6.5ft 16s 7s 16 18 mph 1011mb 59f 54f
1:50pm 6.5ft 16s 7s 13 18 mph 1010.9mb 59f 53f
12:50pm 6.5ft 17s 8s 13 16 mph 1011.8mb 59f 52f
11:50am 6ft 17s 8s 16 18 mph 1011.8mb 59f 54f
10:50am 5.5ft 17s 9s 13 16 mph 1012.4mb 59f 55f
9:50am 5.5ft 17s 8s 7 9 mph 1012.4mb 59f 55f
8:50am 5.5ft 17s 8s 4
mph
1012mb 59f 55f
7:50am 5.5ft 16s 9s 7 9 mph 1011.6mb 59f 55f
6:50am 5ft 16s 8s 7 9 mph 1011mb 59f 55f
5:50am 5ft 16s 8s 9 11 mph 1011.3mb 59f 55f
4:50am 5ft 17s 9s 9 11 mph 1011.1mb 59f 55f
3:50am 5ft 16s 8s 9 11 mph 1011.3mb 59f 55f
2:50am 5.5ft 17s 9s 7
mph
1011.6mb 59f 55f
1:50am 5ft 16s 7s 4
mph
1012.5mb 59f 55f
12:50am 5.5ft 17s 8s 2 4 mph 1013.1mb 59f 55f
Sun 02/26 11:50pm 5ft 14s 7s 2 4 mph 1013.4mb 59f 55f
10:50pm 5.5ft 17s 7s 4 7 mph 1013.8mb 59f 55f
9:50pm 6ft 14s 7s 7 9 mph 1014mb 59f 55f
8:50pm 5.5ft 14s 7s 7 9 mph 1014mb 59f 55f
7:50pm 6ft 15s 7s 9 11 mph 1014.3mb 59f 55f
6:50pm 5.5ft 15s 7s 11 13 mph 1014.3mb 59f 55f
5:50pm 5.5ft 7s 6s 11 16 mph 1014.2mb 59f 55f
4:50pm 6ft 14s 7s 11 13 mph 1014.3mb 59f 55f
3:50pm 5.5ft 7s 6s 13 16 mph 1014.3mb 59f 56f
2:50pm 5.5ft 15s 7s 9 11 mph 1014.4mb 59f 56f
1:50pm 6ft 14s 6s 9 11 mph 1014.8mb 59f 56f
12:50pm 6ft 14s 6s 9 13 mph 1015.4mb 59f 56f
11:50am 6ft 14s 6s 11
mph
1016mb 59f 56f
10:50am 5.5ft 14s 6s 11 13 mph 1016.6mb 59f 55f
9:50am 5ft 15s 6s 13 18 mph 1016.4mb 59f 55f
8:50am 5ft 14s 6s 18 22 mph 1016.1mb 59f 54f
7:50am 5ft 15s 6s 18 20 mph 1015.6mb 59f 55f
6:50am 5ft 15s 5s 18 22 mph 1015mb 59f 53f
5:50am 5ft 15s 6s 20 25 mph 1013.9mb 59f 57f
4:50am 5ft 15s 7s 18 20 mph 1014.6mb 59f 56f
3:50am 5ft 15s 7s 16 20 mph 1015.1mb 59f 56f
2:50am 5ft 15s 7s 13 18 mph 1015.6mb 59f 56f
1:50am 5.5ft 15s 7s 13 18 mph 1016.7mb 59f 56f
12:50am 5.5ft 15s 7s 13 16 mph 1016.9mb 59f 55f
Sat 02/25 11:50pm 6ft 15s 7s 13 16 mph 1017.4mb 59f 55f
10:50pm 6ft 15s 7s 13 16 mph 1017.5mb 59f 55f
9:50pm 6ft 15s 7s 16 18 mph 1017.8mb 59f 55f
8:50pm 5ft 15s 6s 16 20 mph 1017.8mb 59f 55f
7:50pm 5.5ft 15s 7s 16 18 mph 1017.5mb 59f 55f
6:50pm 5ft 15s 7s 16 18 mph 1017.5mb 59f 55f
5:50pm 6ft 15s 7s 13 16 mph 1017.7mb 59f 55f
4:50pm 5.5ft 15s 6s 13 18 mph 1017.8mb 59f 55f
3:50pm 6ft 15s 7s 16 20 mph 1018.1mb 59f 55f
2:50pm 6ft 15s 6s 18 20 mph 1018.7mb 59f 54f
1:50pm 6ft 15s 7s 18 20 mph 1019mb 59f 55f
12:50pm 6ft 15s 7s 13 18 mph 1020mb 59f 55f
11:50am 6ft 16s 6s 16 20 mph 1020.6mb 59f 55f
10:50am 5.5ft 16s 6s 13 18 mph 1020.8mb 59f 55f
9:50am 6ft 16s 7s 16 20 mph 1021mb 59f 55f
8:50am 5ft 16s 6s 16 18 mph 1021mb 59f 54f
7:50am 5.5ft 16s 6s 16 20 mph 1020.8mb 59f 54f
6:50am 5.5ft 16s 7s 13 18 mph 1020mb 59f 54f
5:50am 5ft 16s 6s 13 18 mph 1019.8mb 59f 54f
4:50am 5ft 17s 6s 13 18 mph 1020mb 59f 54f
3:50am 5ft 17s 6s 13 18 mph 1020.1mb 59f 54f
2:50am 6ft 17s 6s 16 20 mph 1020.6mb 59f 54f
1:50am 6ft 8s 6s 16 18 mph 1021.2mb 59f 54f
12:50am 6ft 17s 6s 16 18 mph 1021.7mb 59f 54f
Fri 02/24 11:50pm 6ft 8s 6s 13 18 mph 1022mb 59f 54f
10:50pm 6ft 8s 6s 16 18 mph 1022.3mb 59f 54f
9:50pm 6.5ft 8s 6s 18 20 mph 1022.2mb 59f 54f
8:50pm 6ft 8s 6s 16 18 mph 1022.2mb 59f 54f
7:50pm 6.5ft 8s 6s 16 18 mph 1021.7mb 59f 54f
6:50pm 6ft 8s 6s 18 22 mph 1021.5mb 59f 54f